Terminal Aerodrome Forecast
Issued by NWS

Home | Current Version | Previous Version | Text Only | Print | Product List | Glossary On
Versions: 1 2 3 4 5 6 7 8 9 10 11 12
000
FTUS45 KABQ 181700
TAFSAF
TAF
KSAF 181725Z 1818/1918 20011KT P6SM BKN250
     FM182200 21014G22KT P6SM SCT110 BKN200
     FM190200 17009KT P6SM BKN110
     FM190900 15007KT P6SM VCSH SCT060 OVC100=

USA.gov is the U.S. government's official web portal to all federal, state and local government web resources and services.